Latest Coastal Weather Observations for Mornington Island Airport

IDQ60701

Issued at 9:12 am EST Friday 31 July 2015 (issued every 10 minutes, with the page automatically refreshed every 10 minutes)

About coastal observations | Map of coastal stations | Coastal observations for QLD | Marine services | Other Formats
Station Details ID: 029182 Name: MORNINGTON ISLAND AIRPORT Lat: -16.66 Lon: 139.17 Height: 9.0 m
Data from the previous 72 hours. | See also: Recent months at Mornington Island Airport
Date/Time
EST
Temp

°C
Wind Pressure Rain
since 9am
mm
Weather Cloud Vis
km
Sea
Height
m
Swell
Dir
 
Speed
knots
Gust
knots
hPa Trend Height
m
Period
s
Dir
31/09:00am 23.4 ESE 12 19 1018.6 - 0.0 - - - - - - -
31/08:30am 22.8 ESE 12 17 1018.3 - 0.0 - - - - - - -
31/08:00am 21.8 ESE 10 13 1017.9 - 0.0 - - - - - - -
31/07:30am 21.2 SE 8 13 1017.7 - 0.0 - - - - - - -
31/07:00am 20.8 SE 8 11 1017.3 - 0.0 - - - - - - -
31/06:30am 20.5 SE 7 10 1017.2 - 0.0 - - - - - - -
31/06:00am 19.8 SE 6 8 1016.9 - 0.0 - - - - - - -
31/05:30am 19.2 SE 6 9 1016.8 - 0.0 - - - - - - -
31/05:00am 17.4 SE 5 6 1016.8 - 0.0 - - - - - - -
31/04:30am 17.7 SE 4 5 1016.9 - 0.0 - - - - - - -
31/04:00am 17.8 SSE 3 4 1017.0 - 0.0 - - - - - - -
31/03:30am 18.7 S 4 5 1017.1 - 0.0 - - - - - - -
31/03:00am 19.0 SSW 2 5 1017.2 - 0.0 - - - - - - -
31/02:30am 19.2 SSW 3 5 1017.4 - 0.0 - - - - - - -
31/02:00am 19.2 SW 3 5 1017.6 - 0.0 - - - - - - -
31/01:30am 18.0 S 4 6 1017.9 - 0.0 - - - - - - -
31/01:00am 18.3 CALM 0 0 1018.0 - 0.0 - - - - - - -
31/12:30am 18.0 CALM 0 0 1018.1 - 0.0 - - - - - - -
31/12:00am 18.2 CALM 0 0 1018.0 - 0.0 - - - - - - -
 
Date/Time
EST
Temp

°C
Wind Pressure Rain
since 9am
mm
Weather Cloud Vis
km
Sea
Height
m
Swell
Dir
 
Speed
knots
Gust
knots
hPa Trend Height
m
Period
s
Dir
30/11:30pm 18.8 ENE 1 3 1018.1 - 0.0 - - - - - - -
30/11:00pm 18.8 ENE 3 4 1018.3 - 0.0 - - - - - - -
30/10:30pm 19.0 ENE 3 4 1018.5 - 0.0 - - - - - - -
30/10:00pm 19.3 CALM 0 3 1018.5 - 0.0 - - - - - - -
30/09:30pm 19.7 ENE 3 3 1018.5 - 0.0 - - - - - - -
30/09:00pm 20.3 ENE 3 3 1018.6 - 0.0 - - - - - - -
30/08:30pm 20.9 ENE 4 5 1018.5 - 0.0 - - - - - - -
30/08:00pm 21.5 E 4 5 1018.0 - 0.0 - - - - - - -
30/07:30pm 22.3 ESE 5 6 1017.7 - 0.0 - - - - - - -
30/07:00pm 23.0 ESE 5 7 1017.6 - 0.0 - - - - - - -
30/06:30pm 24.0 SE 6 8 1017.4 - 0.0 - - - - - - -
30/06:00pm 25.1 SE 7 9 1017.2 - 0.0 - - - - - - -
30/05:30pm 25.3 SE 6 9 1017.2 - 0.0 - - - - - - -
30/05:00pm 25.8 SE 6 11 1016.9 - 0.0 - - - - - - -
30/04:30pm 26.3 SE 7 10 1017.0 - 0.0 - - - - - - -
30/04:00pm 26.5 SSE 8 12 1017.0 - 0.0 - - - - - - -
30/03:30pm 26.7 SSE 7 11 1017.1 - 0.0 - - - - - - -
30/03:00pm 26.3 SSE 7 11 1017.4 - 0.0 - - - - - - -
30/02:30pm 26.5 W 7 10 1017.9 - 0.0 - - - - - - -
30/02:00pm 26.7 SSE 5 8 1018.4 - 0.0 - - - - - - -
30/01:30pm 26.9 SE 11 15 1018.6 - 0.0 - - - - - - -
30/01:00pm 27.2 SE 12 17 1018.8 - 0.0 - - - - - - -
30/12:30pm 27.5 SE 11 16 1019.3 - 0.0 - - - - - - -
30/12:00pm 27.3 SE 10 15 1019.7 - 0.0 - - - - - - -
30/11:30am 27.0 SE 10 14 1019.9 - 0.0 - - - - - - -
30/11:00am 25.9 SE 11 15 1020.0 - 0.0 - - - - - - -
30/10:30am 25.5 ESE 9 13 1020.3 - 0.0 - - - - - - -
30/10:00am 25.0 ESE 11 14 1020.4 - 0.0 - - - - - - -
30/09:30am 23.9 SE 11 16 1020.3 - 0.0 - - - - - - -
30/09:00am 22.7 SE 12 16 1020.1 - 0.0 - - - - - - -
30/08:30am 22.1 SE 10 14 1019.7 - 0.0 - - - - - - -
30/08:00am 21.3 SE 10 14 1019.4 - 0.0 - - - - - - -
30/07:30am 20.8 SE 10 13 1019.1 - 0.0 - - - - - - -
30/07:00am 20.9 SE 11 16 1018.7 - 0.0 - - - - - - -
30/06:30am 20.9 SE 10 15 1018.4 - 0.0 - - - - - - -
30/06:00am 20.9 SSE 10 16 1018.0 - 0.0 - - - - - - -
30/05:30am 21.1 SSE 11 18 1017.7 - 0.0 - - - - - - -
30/05:00am 21.2 SSE 10 18 1017.7 - 0.0 - - - - - - -
30/04:30am 21.3 SSE 10 15 1017.8 - 0.0 - - - - - - -
30/04:00am 21.5 SE 11 15 1018.0 - 0.0 - - - - - - -
30/03:30am 21.7 SSE 9 16 1017.7 - 0.0 - - - - - - -
30/03:00am 21.9 SSE 9 15 1017.8 - 0.0 - - - - - - -
30/02:30am 22.4 SSE 10 16 1018.0 - 0.0 - - - - - - -
30/02:00am 22.5 SSE 9 18 1018.3 - 0.0 - - - - - - -
30/01:30am 22.7 SSE 10 16 1018.3 - 0.0 - - - - - - -
30/01:00am 23.1 SSE 9 15 1018.1 - 0.0 - - - - - - -
30/12:30am 23.2 S 9 16 1018.3 - 0.0 - - - - - - -
30/12:00am 23.1 S 7 11 1018.7 - 0.0 - - - - - - -
 
Date/Time
EST
Temp

°C
Wind Pressure Rain
since 9am
mm
Weather Cloud Vis
km
Sea
Height
m
Swell
Dir
 
Speed
knots
Gust
knots
hPa Trend Height
m
Period
s
Dir
29/11:30pm 23.1 SSE 6 8 1018.8 - 0.0 - - - - - - -
29/11:00pm 23.5 SSE 5 8 1019.0 - 0.0 - - - - - - -
29/10:30pm 21.9 SSE 5 8 1019.0 - 0.0 - - - - - - -
29/10:00pm 21.2 SSE 5 6 1019.1 - 0.0 - - - - - - -
29/09:30pm 20.7 SSE 5 6 1019.0 - 0.0 - - - - - - -
29/09:00pm 21.0 SE 4 5 1019.0 - 0.0 - - - - - - -
29/08:30pm 20.8 SE 4 5 1018.9 - 0.0 - - - - - - -
29/08:00pm 21.8 SSE 4 4 1018.7 - 0.0 - - - - - - -
29/07:30pm 22.7 SSE 2 3 1018.4 - 0.0 - - - - - - -
29/07:00pm 23.3 SSE 3 3 1018.1 - 0.0 - - - - - - -
29/06:30pm 24.7 CALM 0 0 1017.9 - 0.0 - - - - - - -
29/06:00pm 25.7 SE 4 6 1018.0 - 0.0 - - - - - - -
29/05:30pm 26.1 SE 6 8 1018.0 - 0.0 - - - - - - -
29/05:00pm 26.2 SE 6 8 1018.0 - 0.0 - - - - - - -
29/04:30pm 26.8 SE 6 10 1017.9 - 0.0 - - - - - - -
29/04:00pm 26.2 SSE 9 15 1018.0 - 0.0 - - - - - - -
29/03:30pm 26.6 SSE 9 14 1018.3 - 0.0 - - - - - - -
29/03:00pm 25.8 SSE 11 17 1018.5 - 0.0 - - - - - - -
29/02:30pm 26.2 SE 13 19 1018.7 - 0.0 - - - - - - -
29/02:00pm 25.7 SE 11 19 1019.0 - 0.0 - - - - - - -
29/01:30pm 25.5 SSE 10 18 1019.5 - 0.0 - - - - - - -
29/01:00pm 24.5 SSE 11 16 1020.0 - 0.0 - - - - - - -
29/12:30pm 24.2 SSE 11 17 1020.4 - 0.0 - - - - - - -
29/12:00pm 23.6 SSE 11 17 1020.9 - 0.0 - - - - - - -
29/11:30am 24.3 SSE 10 16 1021.0 - 0.0 - - - - - - -
29/11:00am 23.7 SSE 11 16 1021.1 - 0.0 - - - - - - -
29/10:30am 24.2 SE 12 20 1021.2 - 0.0 - - - - - - -
29/10:00am 23.6 SE 11 17 1021.2 - 0.0 - - - - - - -
29/09:30am 22.6 SE 13 18 1021.1 - 0.0 - - - - - - -
29/09:00am 22.8 SE 11 18 1020.8 - 0.0 - - - - - - -
29/08:30am 22.1 SE 11 18 1020.6 - 0.0 - - - - - - -
29/08:00am 21.6 SE 10 16 1020.1 - 0.0 - - - - - - -
29/07:30am 21.1 SE 9 14 1019.7 - 0.0 - - - - - - -
29/07:00am 21.0 SE 11 16 1019.3 - 0.0 - - - - - - -
29/06:30am 20.6 SE 9 15 1019.1 - 0.0 - - - - - - -
29/06:00am 20.7 SE 9 17 1018.9 - 0.0 - - - - - - -
29/05:30am 20.8 SSE 10 16 1018.7 - 0.0 - - - - - - -
29/05:00am 21.0 SSE 9 14 1018.7 - 0.0 - - - - - - -
29/04:30am 21.2 SSE 10 16 1018.9 - 0.0 - - - - - - -
29/04:00am 21.2 SSE 9 15 1019.0 - 0.0 - - - - - - -
29/03:30am 21.4 SSE 9 15 1018.9 - 0.0 - - - - - - -
29/03:00am 21.7 SSE 9 16 1019.1 - 0.0 - - - - - - -
29/02:30am 22.0 SSE 10 16 1019.3 - 0.0 - - - - - - -
29/02:00am 22.2 SSE 10 15 1019.4 - 0.0 - - - - - - -
29/01:30am 22.4 SSE 9 16 1019.6 - 0.0 - - - - - - -
29/01:00am 22.8 SSE 10 16 1019.6 - 0.0 - - - - - - -
29/12:30am 23.0 S 9 17 1019.5 - 0.0 - - - - - - -
29/12:00am 23.2 SSE 10 16 1019.7 - 0.0 - - - - - - -
 
Date/Time
EST
Temp

°C
Wind Pressure Rain
since 9am
mm
Weather Cloud Vis
km
Sea
Height
m
Swell
Dir
 
Speed
knots
Gust
knots
hPa Trend Height
m
Period
s
Dir
28/11:30pm 23.5 S 11 18 1019.8 - 0.0 - - - - - - -
28/11:00pm 23.7 S 10 19 1019.9 - 0.0 - - - - - - -
28/10:30pm 23.9 S 10 17 1020.0 - 0.0 - - - - - - -
28/10:00pm 24.0 S 9 16 1020.2 - 0.0 - - - - - - -
28/09:30pm 24.2 S 8 13 1020.3 - 0.0 - - - - - - -
28/09:00pm 23.6 SSE 7 11 1020.3 - 0.0 - - - - - - -
28/08:30pm 22.6 SSE 6 9 1020.1 - 0.0 - - - - - - -
28/08:00pm 22.3 SE 5 6 1019.7 - 0.0 - - - - - - -
28/07:30pm 22.9 SE 5 7 1019.4 - 0.0 - - - - - - -
28/07:00pm 23.5 SE 6 8 1019.1 - 0.0 - - - - - - -
28/06:30pm 24.3 SSE 5 7 1018.9 - 0.0 - - - - - - -
28/06:00pm 25.7 SE 6 9 1018.8 - 0.0 - - - - - - -
28/05:30pm 26.2 SE 7 11 1018.6 - 0.0 - - - - - - -
28/05:00pm 26.7 SSE 8 12 1018.5 - 0.0 - - - - - - -
28/04:30pm 26.4 SE 10 15 1018.1 - 0.0 - - - - - - -
28/04:00pm 26.4 SE 10 16 1018.1 - 0.0 - - - - - - -
28/03:30pm 26.2 SSE 9 16 1018.1 - 0.0 - - - - - - -
28/03:00pm 25.8 SE 10 16 1018.4 - 0.0 - - - - - - -
28/02:30pm 26.2 SE 11 17 1018.9 - 0.0 - - - - - - -
28/02:00pm 25.7 SSE 12 19 1019.4 - 0.0 - - - - - - -
28/01:30pm 24.3 SE 12 17 1019.8 - 0.0 - - - - - - -
28/01:00pm 24.0 SE 12 20 1020.3 - 0.0 - - - - - - -
28/12:30pm 24.0 SE 12 20 1020.7 - 0.0 - - - - - - -
28/12:00pm 23.9 SE 13 21 1021.1 - 0.0 - - - - - - -
28/11:30am 23.1 SE 15 22 1021.4 - 0.0 - - - - - - -
28/11:00am 23.3 SE 12 20 1021.7 - 0.0 - - - - - - -
28/10:30am 22.7 SSE 14 23 1021.9 - 0.0 - - - - - - -
28/10:00am 22.6 SSE 14 22 1022.0 - 0.0 - - - - - - -
28/09:30am 22.5 SE 14 23 1021.9 - 0.0 - - - - - - -

Other Formats:

Comma delimited format used in spreadsheet applications
http://www.bom.gov.au/fwo/IDQ60701/IDQ60701.94254.axf

JavaScript Object Notation format (JSON) in row-major order
http://www.bom.gov.au/fwo/IDQ60701/IDQ60701.94254.json